sensor_id;sensor_type;location;lat;lon;timestamp;temperature;humidity
22426;DHT22;11380;50.822;15.790;2022-10-16T00:04:32;12.10;99.90
22426;DHT22;11380;50.822;15.790;2022-10-16T00:09:37;12.10;99.90
22426;DHT22;11380;50.822;15.790;2022-10-16T00:14:44;12.20;99.90
22426;DHT22;11380;50.822;15.790;2022-10-16T00:19:50;12.30;99.90
22426;DHT22;11380;50.822;15.790;2022-10-16T00:24:56;12.20;99.90
22426;DHT22;11380;50.822;15.790;2022-10-16T00:30:01;12.20;99.90
22426;DHT22;11380;50.822;15.790;2022-10-16T00:35:07;12.20;99.90
22426;DHT22;11380;50.822;15.790;2022-10-16T00:40:13;12.30;99.90
22426;DHT22;11380;50.822;15.790;2022-10-16T00:45:19;12.40;99.90
22426;DHT22;11380;50.822;15.790;2022-10-16T00:50:33;12.30;99.90
22426;DHT22;11380;50.822;15.790;2022-10-16T00:55:39;12.50;99.90
22426;DHT22;11380;50.822;15.790;2022-10-16T01:00:46;13.10;99.90
22426;DHT22;11380;50.822;15.790;2022-10-16T01:06:03;14.30;99.90
22426;DHT22;11380;50.822;15.790;2022-10-16T01:11:11;14.50;99.90
22426;DHT22;11380;50.822;15.790;2022-10-16T01:16:29;14.10;99.90
22426;DHT22;11380;50.822;15.790;2022-10-16T01:21:36;13.90;99.90
22426;DHT22;11380;50.822;15.790;2022-10-16T01:27:04;13.40;99.90
22426;DHT22;11380;50.822;15.790;2022-10-16T01:32:32;13.10;99.90
22426;DHT22;11380;50.822;15.790;2022-10-16T01:37:29;13.50;99.90
22426;DHT22;11380;50.822;15.790;2022-10-16T01:42:48;13.30;99.90
22426;DHT22;11380;50.822;15.790;2022-10-16T01:47:50;13.90;99.90
22426;DHT22;11380;50.822;15.790;2022-10-16T01:52:57;14.40;99.90
22426;DHT22;11380;50.822;15.790;2022-10-16T01:58:06;15.00;99.90
22426;DHT22;11380;50.822;15.790;2022-10-16T02:03:15;15.00;99.90
22426;DHT22;11380;50.822;15.790;2022-10-16T02:08:25;15.00;99.90
22426;DHT22;11380;50.822;15.790;2022-10-16T02:13:51;15.20;99.90
22426;DHT22;11380;50.822;15.790;2022-10-16T02:18:57;14.70;99.90
22426;DHT22;11380;50.822;15.790;2022-10-16T02:29:18;14.80;99.90
22426;DHT22;11380;50.822;15.790;2022-10-16T02:34:24;14.70;99.90
22426;DHT22;11380;50.822;15.790;2022-10-16T02:39:31;14.50;99.90
22426;DHT22;11380;50.822;15.790;2022-10-16T02:44:37;14.60;99.90
22426;DHT22;11380;50.822;15.790;2022-10-16T02:49:43;14.40;99.90
22426;DHT22;11380;50.822;15.790;2022-10-16T02:54:50;14.40;99.90
22426;DHT22;11380;50.822;15.790;2022-10-16T02:59:56;14.40;99.90
22426;DHT22;11380;50.822;15.790;2022-10-16T03:05:01;14.40;99.90
22426;DHT22;11380;50.822;15.790;2022-10-16T03:10:08;14.40;99.90
22426;DHT22;11380;50.822;15.790;2022-10-16T03:15:14;14.40;99.90
22426;DHT22;11380;50.822;15.790;2022-10-16T03:20:20;14.30;99.90
22426;DHT22;11380;50.822;15.790;2022-10-16T03:25:26;14.30;99.90
22426;DHT22;11380;50.822;15.790;2022-10-16T03:30:31;13.90;99.90
22426;DHT22;11380;50.822;15.790;2022-10-16T03:35:37;13.70;99.90
22426;DHT22;11380;50.822;15.790;2022-10-16T03:40:43;13.60;99.90
22426;DHT22;11380;50.822;15.790;2022-10-16T03:45:50;13.40;99.90
22426;DHT22;11380;50.822;15.790;2022-10-16T03:50:56;13.40;99.90
22426;DHT22;11380;50.822;15.790;2022-10-16T03:56:02;13.20;99.90
22426;DHT22;11380;50.822;15.790;2022-10-16T04:01:07;13.40;99.90
22426;DHT22;11380;50.822;15.790;2022-10-16T04:06:13;13.40;99.90
22426;DHT22;11380;50.822;15.790;2022-10-16T04:11:18;13.10;99.90
22426;DHT22;11380;50.822;15.790;2022-10-16T04:16:23;13.20;99.90
22426;DHT22;11380;50.822;15.790;2022-10-16T04:21:29;13.10;99.90
22426;DHT22;11380;50.822;15.790;2022-10-16T04:26:35;13.00;99.90
22426;DHT22;11380;50.822;15.790;2022-10-16T04:31:40;12.90;99.90
22426;DHT22;11380;50.822;15.790;2022-10-16T04:36:49;13.10;99.90
22426;DHT22;11380;50.822;15.790;2022-10-16T04:41:55;13.60;99.90
22426;DHT22;11380;50.822;15.790;2022-10-16T04:47:01;13.60;99.90
22426;DHT22;11380;50.822;15.790;2022-10-16T04:52:06;13.50;99.90
22426;DHT22;11380;50.822;15.790;2022-10-16T04:57:14;13.30;99.90
22426;DHT22;11380;50.822;15.790;2022-10-16T05:02:19;13.50;99.90
22426;DHT22;11380;50.822;15.790;2022-10-16T05:07:24;13.70;99.90
22426;DHT22;11380;50.822;15.790;2022-10-16T05:12:31;13.60;99.90
22426;DHT22;11380;50.822;15.790;2022-10-16T05:17:36;13.70;99.90
22426;DHT22;11380;50.822;15.790;2022-10-16T05:22:43;13.50;99.90
22426;DHT22;11380;50.822;15.790;2022-10-16T05:27:50;13.60;99.90
22426;DHT22;11380;50.822;15.790;2022-10-16T05:32:56;13.60;99.90
22426;DHT22;11380;50.822;15.790;2022-10-16T05:38:02;13.50;99.90
22426;DHT22;11380;50.822;15.790;2022-10-16T05:43:07;13.60;99.90
22426;DHT22;11380;50.822;15.790;2022-10-16T05:48:12;13.70;99.90
22426;DHT22;11380;50.822;15.790;2022-10-16T05:53:17;13.60;99.90
22426;DHT22;11380;50.822;15.790;2022-10-16T05:58:27;13.50;99.90
22426;DHT22;11380;50.822;15.790;2022-10-16T06:03:33;14.00;99.90
22426;DHT22;11380;50.822;15.790;2022-10-16T06:08:40;14.30;99.90
22426;DHT22;11380;50.822;15.790;2022-10-16T06:14:05;14.50;99.90
22426;DHT22;11380;50.822;15.790;2022-10-16T06:19:14;14.60;99.90
22426;DHT22;11380;50.822;15.790;2022-10-16T06:24:21;14.70;99.90
22426;DHT22;11380;50.822;15.790;2022-10-16T06:29:27;14.40;99.90
22426;DHT22;11380;50.822;15.790;2022-10-16T06:34:32;14.40;99.90
22426;DHT22;11380;50.822;15.790;2022-10-16T06:39:38;14.40;99.90
22426;DHT22;11380;50.822;15.790;2022-10-16T06:44:49;14.50;99.90
22426;DHT22;11380;50.822;15.790;2022-10-16T06:49:51;14.50;99.90
22426;DHT22;11380;50.822;15.790;2022-10-16T06:54:56;14.50;99.90
22426;DHT22;11380;50.822;15.790;2022-10-16T07:00:03;14.50;99.90
22426;DHT22;11380;50.822;15.790;2022-10-16T07:05:09;14.50;99.90
22426;DHT22;11380;50.822;15.790;2022-10-16T07:10:13;14.60;99.90
22426;DHT22;11380;50.822;15.790;2022-10-16T07:15:19;14.70;99.90
22426;DHT22;11380;50.822;15.790;2022-10-16T07:20:24;14.90;99.90
22426;DHT22;11380;50.822;15.790;2022-10-16T07:25:30;15.00;99.90
22426;DHT22;11380;50.822;15.790;2022-10-16T07:30:36;15.20;99.90
22426;DHT22;11380;50.822;15.790;2022-10-16T07:35:49;15.30;99.90
22426;DHT22;11380;50.822;15.790;2022-10-16T07:41:00;15.30;99.90
22426;DHT22;11380;50.822;15.790;2022-10-16T07:46:06;15.40;99.90
22426;DHT22;11380;50.822;15.790;2022-10-16T07:51:11;15.60;99.90
22426;DHT22;11380;50.822;15.790;2022-10-16T07:56:17;15.70;99.90
22426;DHT22;11380;50.822;15.790;2022-10-16T08:01:23;16.00;99.90
22426;DHT22;11380;50.822;15.790;2022-10-16T08:06:28;15.90;99.90
22426;DHT22;11380;50.822;15.790;2022-10-16T08:11:33;16.10;99.90
22426;DHT22;11380;50.822;15.790;2022-10-16T08:16:39;16.10;99.90
22426;DHT22;11380;50.822;15.790;2022-10-16T08:21:49;16.20;99.90
22426;DHT22;11380;50.822;15.790;2022-10-16T08:26:56;16.20;99.90
22426;DHT22;11380;50.822;15.790;2022-10-16T08:32:03;16.40;99.90
22426;DHT22;11380;50.822;15.790;2022-10-16T08:37:07;16.90;21.20
22426;DHT22;11380;50.822;15.790;2022-10-16T08:53:41;17.60;99.90
22426;DHT22;11380;50.822;15.790;2022-10-16T08:58:45;17.90;99.90
22426;DHT22;11380;50.822;15.790;2022-10-16T09:04:20;18.00;99.90
22426;DHT22;11380;50.822;15.790;2022-10-16T09:14:35;18.30;99.90
22426;DHT22;11380;50.822;15.790;2022-10-16T09:19:48;18.10;99.90
22426;DHT22;11380;50.822;15.790;2022-10-16T09:24:56;18.00;99.90
22426;DHT22;11380;50.822;15.790;2022-10-16T09:30:11;18.00;99.90
22426;DHT22;11380;50.822;15.790;2022-10-16T09:35:31;18.00;99.90
22426;DHT22;11380;50.822;15.790;2022-10-16T09:45:35;18.20;99.90
22426;DHT22;11380;50.822;15.790;2022-10-16T09:50:41;18.50;99.90
22426;DHT22;11380;50.822;15.790;2022-10-16T09:55:53;18.50;99.90
22426;DHT22;11380;50.822;15.790;2022-10-16T10:01:00;18.50;99.90
22426;DHT22;11380;50.822;15.790;2022-10-16T10:06:23;18.80;99.90
22426;DHT22;11380;50.822;15.790;2022-10-16T10:38:50;18.50;99.90
22426;DHT22;11380;50.822;15.790;2022-10-16T11:05:25;18.90;99.90
22426;DHT22;11380;50.822;15.790;2022-10-16T11:10:42;18.80;99.90
22426;DHT22;11380;50.822;15.790;2022-10-16T11:15:49;18.90;99.90
22426;DHT22;11380;50.822;15.790;2022-10-16T11:21:02;19.10;99.90
22426;DHT22;11380;50.822;15.790;2022-10-16T11:26:16;19.20;99.90
22426;DHT22;11380;50.822;15.790;2022-10-16T11:37:03;19.40;99.90
22426;DHT22;11380;50.822;15.790;2022-10-16T11:47:45;19.20;99.90
22426;DHT22;11380;50.822;15.790;2022-10-16T11:53:02;19.30;99.90
22426;DHT22;11380;50.822;15.790;2022-10-16T11:58:29;19.50;99.90
22426;DHT22;11380;50.822;15.790;2022-10-16T12:08:47;19.70;99.90
22426;DHT22;11380;50.822;15.790;2022-10-16T12:19:21;19.50;99.90
22426;DHT22;11380;50.822;15.790;2022-10-16T12:29:41;19.60;99.90
22426;DHT22;11380;50.822;15.790;2022-10-16T12:34:47;19.60;99.90
22426;DHT22;11380;50.822;15.790;2022-10-16T12:39:54;19.40;99.90
22426;DHT22;11380;50.822;15.790;2022-10-16T12:45:01;19.50;99.90
22426;DHT22;11380;50.822;15.790;2022-10-16T12:50:27;19.50;99.90
22426;DHT22;11380;50.822;15.790;2022-10-16T12:55:42;19.30;99.90
22426;DHT22;11380;50.822;15.790;2022-10-16T13:00:54;19.30;99.90
22426;DHT22;11380;50.822;15.790;2022-10-16T13:11:52;19.40;99.90
22426;DHT22;11380;50.822;15.790;2022-10-16T13:17:24;19.60;99.90
22426;DHT22;11380;50.822;15.790;2022-10-16T13:22:44;19.90;99.90
22426;DHT22;11380;50.822;15.790;2022-10-16T13:27:56;20.20;99.90
22426;DHT22;11380;50.822;15.790;2022-10-16T13:38:30;20.70;99.90
22426;DHT22;11380;50.822;15.790;2022-10-16T13:43:36;20.40;99.90
22426;DHT22;11380;50.822;15.790;2022-10-16T13:48:43;20.30;99.90
22426;DHT22;11380;50.822;15.790;2022-10-16T13:53:50;20.00;99.90
22426;DHT22;11380;50.822;15.790;2022-10-16T13:59:06;20.20;99.90
22426;DHT22;11380;50.822;15.790;2022-10-16T14:04:09;20.50;99.90
22426;DHT22;11380;50.822;15.790;2022-10-16T14:09:26;20.40;99.90
22426;DHT22;11380;50.822;15.790;2022-10-16T14:14:35;20.20;99.90
22426;DHT22;11380;50.822;15.790;2022-10-16T14:19:47;19.80;99.90
22426;DHT22;11380;50.822;15.790;2022-10-16T14:24:55;19.60;99.90
22426;DHT22;11380;50.822;15.790;2022-10-16T14:30:19;19.60;99.90
22426;DHT22;11380;50.822;15.790;2022-10-16T14:35:30;19.60;99.90
22426;DHT22;11380;50.822;15.790;2022-10-16T14:40:37;19.40;99.90
22426;DHT22;11380;50.822;15.790;2022-10-16T14:45:49;19.30;99.90
22426;DHT22;11380;50.822;15.790;2022-10-16T14:50:52;19.30;99.90
22426;DHT22;11380;50.822;15.790;2022-10-16T14:55:58;19.20;99.90
22426;DHT22;11380;50.822;15.790;2022-10-16T15:01:03;19.20;99.90
22426;DHT22;11380;50.822;15.790;2022-10-16T15:06:12;19.10;99.90
22426;DHT22;11380;50.822;15.790;2022-10-16T15:11:18;19.10;99.90
22426;DHT22;11380;50.822;15.790;2022-10-16T15:16:24;19.00;99.90
22426;DHT22;11380;50.822;15.790;2022-10-16T15:21:32;19.00;99.90
22426;DHT22;11380;50.822;15.790;2022-10-16T15:26:38;19.00;99.90
22426;DHT22;11380;50.822;15.790;2022-10-16T15:31:44;19.00;99.90
22426;DHT22;11380;50.822;15.790;2022-10-16T15:36:52;19.00;99.90
22426;DHT22;11380;50.822;15.790;2022-10-16T15:41:59;18.80;99.90
22426;DHT22;11380;50.822;15.790;2022-10-16T15:47:04;18.70;99.90
22426;DHT22;11380;50.822;15.790;2022-10-16T15:52:09;18.40;99.90
22426;DHT22;11380;50.822;15.790;2022-10-16T15:57:15;18.10;99.90
22426;DHT22;11380;50.822;15.790;2022-10-16T16:02:21;17.60;99.90
22426;DHT22;11380;50.822;15.790;2022-10-16T16:07:26;18.10;99.90
22426;DHT22;11380;50.822;15.790;2022-10-16T16:12:33;18.80;99.90
22426;DHT22;11380;50.822;15.790;2022-10-16T16:17:40;19.10;99.90
22426;DHT22;11380;50.822;15.790;2022-10-16T16:22:45;18.90;99.90
22426;DHT22;11380;50.822;15.790;2022-10-16T16:27:51;18.50;99.90
22426;DHT22;11380;50.822;15.790;2022-10-16T16:32:56;18.10;99.90
22426;DHT22;11380;50.822;15.790;2022-10-16T16:38:01;17.70;99.90
22426;DHT22;11380;50.822;15.790;2022-10-16T16:43:07;17.90;99.90
22426;DHT22;11380;50.822;15.790;2022-10-16T16:48:13;17.70;99.90
22426;DHT22;11380;50.822;15.790;2022-10-16T16:53:19;17.50;1.00
22426;DHT22;11380;50.822;15.790;2022-10-16T16:58:27;17.40;1.00
22426;DHT22;11380;50.822;15.790;2022-10-16T17:03:34;17.20;1.00
22426;DHT22;11380;50.822;15.790;2022-10-16T17:08:39;17.10;1.00
22426;DHT22;11380;50.822;15.790;2022-10-16T17:13:45;16.80;1.00
22426;DHT22;11380;50.822;15.790;2022-10-16T17:18:53;16.80;1.00
22426;DHT22;11380;50.822;15.790;2022-10-16T17:23:59;16.70;1.00
22426;DHT22;11380;50.822;15.790;2022-10-16T17:29:04;16.50;1.00
22426;DHT22;11380;50.822;15.790;2022-10-16T17:34:11;16.20;1.00
22426;DHT22;11380;50.822;15.790;2022-10-16T17:39:17;16.70;1.00
22426;DHT22;11380;50.822;15.790;2022-10-16T17:44:22;17.00;1.00
22426;DHT22;11380;50.822;15.790;2022-10-16T17:49:27;16.50;1.00
22426;DHT22;11380;50.822;15.790;2022-10-16T17:54:33;16.50;1.00
22426;DHT22;11380;50.822;15.790;2022-10-16T17:59:42;16.00;29.50
22426;DHT22;11380;50.822;15.790;2022-10-16T18:04:50;16.00;1.00
22426;DHT22;11380;50.822;15.790;2022-10-16T18:09:55;15.80;1.00
22426;DHT22;11380;50.822;15.790;2022-10-16T18:15:04;15.70;38.80
22426;DHT22;11380;50.822;15.790;2022-10-16T18:20:11;15.50;99.90
22426;DHT22;11380;50.822;15.790;2022-10-16T18:25:19;16.10;1.00
22426;DHT22;11380;50.822;15.790;2022-10-16T18:30:25;15.70;1.00
22426;DHT22;11380;50.822;15.790;2022-10-16T18:35:36;15.60;1.00
22426;DHT22;11380;50.822;15.790;2022-10-16T18:40:43;15.40;1.00
22426;DHT22;11380;50.822;15.790;2022-10-16T18:45:57;15.80;13.30
22426;DHT22;11380;50.822;15.790;2022-10-16T18:56:18;15.00;99.90
22426;DHT22;11380;50.822;15.790;2022-10-16T19:01:26;14.90;99.90
22426;DHT22;11380;50.822;15.790;2022-10-16T19:06:35;14.80;99.90
22426;DHT22;11380;50.822;15.790;2022-10-16T19:11:42;14.90;99.90
22426;DHT22;11380;50.822;15.790;2022-10-16T19:16:48;14.90;99.90
22426;DHT22;11380;50.822;15.790;2022-10-16T19:21:53;14.50;99.90
22426;DHT22;11380;50.822;15.790;2022-10-16T19:27:04;14.60;99.90
22426;DHT22;11380;50.822;15.790;2022-10-16T19:32:11;14.40;99.90
22426;DHT22;11380;50.822;15.790;2022-10-16T19:37:17;14.40;99.90
22426;DHT22;11380;50.822;15.790;2022-10-16T19:42:25;14.20;99.90
22426;DHT22;11380;50.822;15.790;2022-10-16T19:47:31;14.10;99.90
22426;DHT22;11380;50.822;15.790;2022-10-16T19:52:36;14.20;99.90
22426;DHT22;11380;50.822;15.790;2022-10-16T19:57:42;14.40;99.90
22426;DHT22;11380;50.822;15.790;2022-10-16T20:02:47;14.90;99.90
22426;DHT22;11380;50.822;15.790;2022-10-16T20:07:55;15.10;99.90
22426;DHT22;11380;50.822;15.790;2022-10-16T20:13:00;15.00;99.90
22426;DHT22;11380;50.822;15.790;2022-10-16T20:18:08;14.90;99.90
22426;DHT22;11380;50.822;15.790;2022-10-16T20:23:13;15.10;99.90
22426;DHT22;11380;50.822;15.790;2022-10-16T20:28:21;14.70;99.90
22426;DHT22;11380;50.822;15.790;2022-10-16T20:33:28;14.40;99.90
22426;DHT22;11380;50.822;15.790;2022-10-16T20:38:35;14.30;99.90
22426;DHT22;11380;50.822;15.790;2022-10-16T20:43:43;14.20;99.90
22426;DHT22;11380;50.822;15.790;2022-10-16T20:48:51;14.10;99.90
22426;DHT22;11380;50.822;15.790;2022-10-16T20:53:59;14.00;99.90
22426;DHT22;11380;50.822;15.790;2022-10-16T20:59:05;13.70;99.90
22426;DHT22;11380;50.822;15.790;2022-10-16T21:04:10;13.50;99.90
22426;DHT22;11380;50.822;15.790;2022-10-16T21:09:16;13.60;99.90
22426;DHT22;11380;50.822;15.790;2022-10-16T21:14:21;13.40;99.90
22426;DHT22;11380;50.822;15.790;2022-10-16T21:19:30;13.20;99.90
22426;DHT22;11380;50.822;15.790;2022-10-16T21:24:36;13.20;99.90
22426;DHT22;11380;50.822;15.790;2022-10-16T21:29:44;13.20;99.90
22426;DHT22;11380;50.822;15.790;2022-10-16T21:34:51;14.30;99.90
22426;DHT22;11380;50.822;15.790;2022-10-16T21:39:56;13.70;99.90
22426;DHT22;11380;50.822;15.790;2022-10-16T21:45:01;13.80;99.90
22426;DHT22;11380;50.822;15.790;2022-10-16T21:50:08;13.70;99.90
22426;DHT22;11380;50.822;15.790;2022-10-16T21:55:13;13.50;99.90
22426;DHT22;11380;50.822;15.790;2022-10-16T22:00:19;13.70;99.90
22426;DHT22;11380;50.822;15.790;2022-10-16T22:05:24;13.90;99.90
22426;DHT22;11380;50.822;15.790;2022-10-16T22:10:30;14.20;99.90
22426;DHT22;11380;50.822;15.790;2022-10-16T22:15:35;13.80;99.90
22426;DHT22;11380;50.822;15.790;2022-10-16T22:20:45;13.40;99.90
22426;DHT22;11380;50.822;15.790;2022-10-16T22:25:57;13.40;99.90
22426;DHT22;11380;50.822;15.790;2022-10-16T22:31:13;13.40;99.90
22426;DHT22;11380;50.822;15.790;2022-10-16T22:36:18;13.20;99.90
22426;DHT22;11380;50.822;15.790;2022-10-16T22:41:24;13.20;99.90
22426;DHT22;11380;50.822;15.790;2022-10-16T22:46:30;13.10;99.90
22426;DHT22;11380;50.822;15.790;2022-10-16T22:51:35;13.30;99.90
22426;DHT22;11380;50.822;15.790;2022-10-16T22:56:42;13.40;99.90
22426;DHT22;11380;50.822;15.790;2022-10-16T23:01:47;14.00;99.90
22426;DHT22;11380;50.822;15.790;2022-10-16T23:06:52;14.10;99.90
22426;DHT22;11380;50.822;15.790;2022-10-16T23:11:58;14.80;99.90
22426;DHT22;11380;50.822;15.790;2022-10-16T23:17:04;15.20;99.90
22426;DHT22;11380;50.822;15.790;2022-10-16T23:22:09;15.50;99.90
22426;DHT22;11380;50.822;15.790;2022-10-16T23:27:15;15.50;99.90
22426;DHT22;11380;50.822;15.790;2022-10-16T23:32:20;15.50;99.90
22426;DHT22;11380;50.822;15.790;2022-10-16T23:37:25;15.60;99.90
22426;DHT22;11380;50.822;15.790;2022-10-16T23:42:31;15.00;99.90
22426;DHT22;11380;50.822;15.790;2022-10-16T23:47:37;14.70;99.90
22426;DHT22;11380;50.822;15.790;2022-10-16T23:52:44;14.80;99.90
22426;DHT22;11380;50.822;15.790;2022-10-16T23:57:49;15.00;99.90
